Time;durP1;ratioP1;P1;durP2;ratioP2;P2;SDS_P1;SDS_P2;PMS_P1;PMS_P2;Temp;Humidity;BMP_temperature;BMP_pressure;BME280_temperature;BME280_humidity;BME280_pressure;Samples;Min_cycle;Max_cycle;Signal;HPM_P1;HPM_P2
2022/01/15 00:07:47;;;;;;;11.88;6.53;;;;;;;;;;20839484;28;20477;-63
2022/01/15 00:18:00;;;;;;;16.10;7.43;;;;;;;;;;20839075;28;20081;-60
2022/01/15 00:28:03;;;;;;;11.48;6.55;;;;;;;;;;20837467;28;20156;-60
2022/01/15 00:38:05;;;;;;;12.00;5.82;;;;;;;;;;20837468;28;20485;-60
2022/01/15 00:48:07;;;;;;;11.93;6.13;;;;;;;;;;20836139;28;20057;-61
2022/01/15 00:58:08;;;;;;;10.50;6.43;;;;;;;;;;20835727;28;20162;-61
2022/01/15 01:08:10;;;;;;;12.02;6.28;;;;;;;;;;20834942;28;20061;-60
2022/01/15 01:28:45;;;;;;;11.95;6.00;;;;;;;;;;20833194;28;20413;-62
2022/01/15 01:38:54;;;;;;;12.35;7.07;;;;;;;;;;20832652;28;20203;-61
2022/01/15 01:48:57;;;;;;;13.15;7.38;;;;;;;;;;20830500;28;20053;-61
2022/01/15 01:58:59;;;;;;;12.32;7.00;;;;;;;;;;20831074;28;20058;-61
2022/01/15 02:09:02;;;;;;;11.32;6.30;;;;;;;;;;20830446;28;20060;-61
2022/01/15 02:19:06;;;;;;;25.23;11.70;;;;;;;;;;20830664;28;20041;-62
2022/01/15 02:29:09;;;;;;;10.52;6.10;;;;;;;;;;20831039;28;20417;-61
2022/01/15 02:39:11;;;;;;;11.90;6.88;;;;;;;;;;20839074;28;20046;-61
2022/01/15 02:49:13;;;;;;;13.38;6.38;;;;;;;;;;20845665;28;20061;-61
2022/01/15 02:59:27;;;;;;;9.48;6.15;;;;;;;;;;20845130;28;20124;-62
2022/01/15 03:09:28;;;;;;;9.20;5.93;;;;;;;;;;20844841;28;20102;-59
2022/01/15 03:19:30;;;;;;;8.88;5.63;;;;;;;;;;20844096;28;20135;-61
2022/01/15 03:29:32;;;;;;;7.57;5.80;;;;;;;;;;20842685;28;20553;-62
2022/01/15 03:39:37;;;;;;;10.82;5.90;;;;;;;;;;20842646;28;20046;-61
2022/01/15 03:49:40;;;;;;;12.40;6.18;;;;;;;;;;20841933;28;20115;-59
2022/01/15 03:59:42;;;;;;;10.55;5.43;;;;;;;;;;20840819;28;20045;-61
2022/01/15 04:09:45;;;;;;;9.20;5.13;;;;;;;;;;20839938;28;20057;-61
2022/01/15 04:19:47;;;;;;;10.35;4.93;;;;;;;;;;20839470;28;20052;-61
2022/01/15 04:29:52;;;;;;;7.88;5.10;;;;;;;;;;20837805;28;20520;-61
2022/01/15 04:39:53;;;;;;;12.27;6.00;;;;;;;;;;20837406;28;20076;-61
2022/01/15 04:49:55;;;;;;;8.20;4.85;;;;;;;;;;20836256;28;20053;-62
2022/01/15 04:59:58;;;;;;;10.55;4.85;;;;;;;;;;20835118;28;20052;-61
2022/01/15 05:10:01;;;;;;;9.05;4.82;;;;;;;;;;20835176;28;20053;-61
2022/01/15 05:20:03;;;;;;;8.15;5.18;;;;;;;;;;20834204;28;20092;-62
2022/01/15 05:30:07;;;;;;;10.13;5.60;;;;;;;;;;20833574;28;20057;-62
2022/01/15 05:40:09;;;;;;;8.90;5.38;;;;;;;;;;20833106;28;20417;-61
2022/01/15 05:50:11;;;;;;;9.40;4.95;;;;;;;;;;20832776;28;20057;-61
2022/01/15 06:00:14;;;;;;;6.72;4.63;;;;;;;;;;20832525;28;20132;-61
2022/01/15 06:10:16;;;;;;;9.05;5.13;;;;;;;;;;20831370;28;20421;-62
2022/01/15 06:20:18;;;;;;;8.30;5.03;;;;;;;;;;20830465;28;20054;-62
2022/01/15 06:30:20;;;;;;;9.80;5.95;;;;;;;;;;20829769;28;20077;-62
2022/01/15 06:40:22;;;;;;;8.15;5.38;;;;;;;;;;20829869;28;20434;-62
2022/01/15 06:50:24;;;;;;;9.45;5.45;;;;;;;;;;20829147;28;20053;-62
2022/01/15 07:00:27;;;;;;;8.38;5.03;;;;;;;;;;20829236;28;20453;-63
2022/01/15 07:10:29;;;;;;;7.45;4.88;;;;;;;;;;20828839;28;20053;-62
2022/01/15 07:20:32;;;;;;;10.57;5.78;;;;;;;;;;20829934;28;20049;-62
2022/01/15 07:30:35;;;;;;;9.80;5.55;;;;;;;;;;20843317;28;20100;-62
2022/01/15 07:40:36;;;;;;;8.52;4.93;;;;;;;;;;20842194;28;20103;-62
2022/01/15 07:50:39;;;;;;;8.05;5.30;;;;;;;;;;20842337;28;20378;-62
2022/01/15 08:00:41;;;;;;;8.07;5.07;;;;;;;;;;20840915;28;20137;-62
2022/01/15 08:10:44;;;;;;;10.25;5.90;;;;;;;;;;20840042;28;20508;-62
2022/01/15 08:20:46;;;;;;;9.25;5.72;;;;;;;;;;20839133;28;20485;-62
2022/01/15 08:30:48;;;;;;;10.82;6.53;;;;;;;;;;20836928;28;20061;-63
2022/01/15 08:40:50;;;;;;;11.40;6.60;;;;;;;;;;20836968;28;20072;-62
2022/01/15 08:50:52;;;;;;;14.98;8.55;;;;;;;;;;20836412;28;20148;-62
2022/01/15 09:00:55;;;;;;;12.13;7.45;;;;;;;;;;20835901;28;20456;-61
2022/01/15 09:10:57;;;;;;;12.77;6.72;;;;;;;;;;20834656;28;20053;-63
2022/01/15 09:20:59;;;;;;;15.35;6.93;;;;;;;;;;20833529;28;20056;-61
2022/01/15 09:31:00;;;;;;;11.05;7.75;;;;;;;;;;20832880;28;20049;-61
2022/01/15 09:41:02;;;;;;;10.45;6.38;;;;;;;;;;20831519;28;20114;-61
2022/01/15 09:51:05;;;;;;;11.77;6.90;;;;;;;;;;20830754;28;20072;-61
2022/01/15 10:01:07;;;;;;;11.02;6.38;;;;;;;;;;20833686;28;20060;-61
2022/01/15 10:11:11;;;;;;;11.63;5.90;;;;;;;;;;20840367;28;20060;-61
2022/01/15 10:21:23;;;;;;;14.07;6.10;;;;;;;;;;20830688;28;20128;-62
2022/01/15 10:31:30;;;;;;;15.98;6.72;;;;;;;;;;20830017;28;20045;-61
2022/01/15 10:41:36;;;;;;;13.77;6.05;;;;;;;;;;20830821;28;20146;-61
2022/01/15 10:51:37;;;;;;;;;;;;;;;;;;20829632;28;20057;-62
2022/01/15 11:01:39;;;;;;;8.77;5.38;;;;;;;;;;20842471;28;19932;-61
2022/01/15 11:12:00;;;;;;;10.27;6.70;;;;;;;;;;20864312;28;20123;-63
2022/01/15 11:22:03;;;;;;;12.05;6.80;;;;;;;;;;20843176;28;20122;-61
2022/01/15 11:32:05;;;;;;;9.32;6.55;;;;;;;;;;20842136;28;20136;-61
2022/01/15 11:42:23;;;;;;;12.38;7.90;;;;;;;;;;20841434;28;20452;-61
2022/01/15 11:52:26;;;;;;;15.57;7.93;;;;;;;;;;20841175;28;20049;-64
2022/01/15 12:02:28;;;;;;;13.20;7.90;;;;;;;;;;20840544;28;20049;-62
2022/01/15 12:12:40;;;;;;;16.17;9.90;;;;;;;;;;20838244;28;20056;-62
2022/01/15 12:22:43;;;;;;;11.77;7.75;;;;;;;;;;20838828;28;20164;-60
2022/01/15 12:32:47;;;;;;;10.80;8.45;;;;;;;;;;20838162;28;20505;-61
2022/01/15 12:42:56;;;;;;;13.95;8.02;;;;;;;;;;20837888;28;20053;-61
2022/01/15 12:53:02;;;;;;;13.50;7.57;;;;;;;;;;20837328;28;20057;-62
2022/01/15 13:03:10;;;;;;;15.80;7.65;;;;;;;;;;20835479;28;20054;-61
2022/01/15 13:13:30;;;;;;;13.45;8.40;;;;;;;;;;20834503;28;20494;-61
2022/01/15 13:23:39;;;;;;;15.00;8.85;;;;;;;;;;20832994;28;20053;-60
2022/01/15 13:33:43;;;;;;;12.27;7.22;;;;;;;;;;20832809;28;20053;-60
2022/01/15 13:43:47;;;;;;;9.77;7.15;;;;;;;;;;20831701;28;20072;-61
2022/01/15 13:53:50;;;;;;;13.90;8.60;;;;;;;;;;20832289;28;20157;-60
2022/01/15 14:03:52;;;;;;;11.73;8.55;;;;;;;;;;20830960;28;20049;-59
2022/01/15 14:14:03;;;;;;;14.38;7.25;;;;;;;;;;20830752;28;20561;-60
2022/01/15 14:24:16;;;;;;;12.88;7.32;;;;;;;;;;20830125;28;20056;-62
2022/01/15 14:34:18;;;;;;;16.27;9.48;;;;;;;;;;20828340;28;20076;-62
2022/01/15 14:44:19;;;;;;;15.93;9.35;;;;;;;;;;20828858;28;20059;-62
2022/01/15 14:54:21;;;;;;;17.48;9.10;;;;;;;;;;20828215;28;20425;-63
2022/01/15 15:04:23;;;;;;;24.42;13.48;;;;;;;;;;20827676;28;20053;-62
2022/01/15 15:14:25;;;;;;;14.18;8.40;;;;;;;;;;20828262;28;20478;-61
2022/01/15 15:24:29;;;;;;;21.02;12.38;;;;;;;;;;20827246;28;20049;-63
2022/01/15 15:34:31;;;;;;;12.52;8.50;;;;;;;;;;20826623;28;20049;-62
2022/01/15 15:44:33;;;;;;;30.80;19.60;;;;;;;;;;20832018;28;20425;-63
2022/01/15 15:54:35;;;;;;;15.45;10.88;;;;;;;;;;20840788;28;20050;-62
2022/01/15 16:04:37;;;;;;;15.57;8.35;;;;;;;;;;20839213;28;20065;-62
2022/01/15 16:14:39;;;;;;;13.73;9.48;;;;;;;;;;20840019;28;20493;-63
2022/01/15 16:24:41;;;;;;;13.80;9.57;;;;;;;;;;20838604;28;20064;-63
2022/01/15 16:34:42;;;;;;;19.38;10.85;;;;;;;;;;20837170;28;20046;-62
2022/01/15 16:44:44;;;;;;;12.40;7.75;;;;;;;;;;20837630;28;20107;-61
2022/01/15 16:54:46;;;;;;;15.95;7.35;;;;;;;;;;20835382;28;20049;-62
2022/01/15 17:04:48;;;;;;;15.32;9.95;;;;;;;;;;20834946;28;20053;-63
2022/01/15 17:14:50;;;;;;;17.27;10.30;;;;;;;;;;20834092;28;20077;-60
2022/01/15 17:24:52;;;;;;;19.00;9.35;;;;;;;;;;20834009;28;20064;-61
2022/01/15 17:34:55;;;;;;;17.50;10.02;;;;;;;;;;20832776;28;20425;-63
2022/01/15 17:44:57;;;;;;;16.67;11.35;;;;;;;;;;20831767;28;20075;-61
2022/01/15 17:54:59;;;;;;;14.13;9.93;;;;;;;;;;20831256;28;20057;-62
2022/01/15 18:05:00;;;;;;;14.60;9.00;;;;;;;;;;20831020;28;20144;-62
2022/01/15 18:15:02;;;;;;;18.10;10.85;;;;;;;;;;20830539;28;20134;-63
2022/01/15 18:25:05;;;;;;;19.88;11.25;;;;;;;;;;20830424;28;20057;-61
2022/01/15 18:35:07;;;;;;;19.52;11.45;;;;;;;;;;20828868;28;20049;-62
2022/01/15 18:45:10;;;;;;;17.50;11.40;;;;;;;;;;20828686;28;20081;-61
2022/01/15 18:55:13;;;;;;;24.65;13.13;;;;;;;;;;20827234;28;20053;-61
2022/01/15 19:05:15;;;;;;;17.52;11.48;;;;;;;;;;20828198;28;20049;-61
2022/01/15 19:15:22;;;;;;;25.50;17.75;;;;;;;;;;20827676;28;20050;-62
2022/01/15 19:25:27;;;;;;;30.98;16.67;;;;;;;;;;20843040;28;20049;-63
2022/01/15 19:35:29;;;;;;;35.20;18.92;;;;;;;;;;20842614;28;20064;-62
2022/01/15 19:45:31;;;;;;;30.30;17.05;;;;;;;;;;20841965;28;20059;-63
2022/01/15 19:55:33;;;;;;;18.35;12.90;;;;;;;;;;20842093;28;20072;-62
2022/01/15 20:05:36;;;;;;;32.15;18.83;;;;;;;;;;20840108;28;20523;-63
2022/01/15 20:15:38;;;;;;;21.90;12.77;;;;;;;;;;20841143;28;20481;-62
2022/01/15 20:25:40;;;;;;;19.83;12.30;;;;;;;;;;20839401;28;20084;-62
2022/01/15 20:35:42;;;;;;;16.38;9.18;;;;;;;;;;20837027;28;20045;-62
2022/01/15 20:45:44;;;;;;;19.75;9.80;;;;;;;;;;20837970;28;20058;-62
2022/01/15 20:55:46;;;;;;;18.88;11.57;;;;;;;;;;20837065;28;20061;-61
2022/01/15 21:05:50;;;;;;;15.93;8.75;;;;;;;;;;20835672;28;20065;-61
2022/01/15 21:15:52;;;;;;;11.80;8.55;;;;;;;;;;20850348;28;20050;-63
2022/01/15 21:26:00;;;;;;;14.80;9.05;;;;;;;;;;20835132;28;20501;-63
2022/01/15 21:36:03;;;;;;;27.17;15.68;;;;;;;;;;20834621;28;20502;-63
2022/01/15 21:46:06;;;;;;;22.15;11.63;;;;;;;;;;20833282;28;20155;-62
2022/01/15 21:56:08;;;;;;;46.95;22.95;;;;;;;;;;20832805;28;20421;-62
2022/01/15 22:06:11;;;;;;;24.92;12.63;;;;;;;;;;20831851;28;20425;-63
2022/01/15 22:16:13;;;;;;;20.50;12.60;;;;;;;;;;20831164;28;20045;-62
2022/01/15 22:26:17;;;;;;;20.00;12.55;;;;;;;;;;20830808;28;20085;-64
2022/01/15 22:36:18;;;;;;;15.85;10.15;;;;;;;;;;20829671;28;20080;-63
2022/01/15 22:46:20;;;;;;;19.77;10.73;;;;;;;;;;20830525;28;20095;-63
2022/01/15 22:56:23;;;;;;;18.52;11.98;;;;;;;;;;20839183;28;20053;-63
2022/01/15 23:06:25;;;;;;;18.02;11.73;;;;;;;;;;20845493;28;20056;-63
2022/01/15 23:26:30;;;;;;;20.77;13.38;;;;;;;;;;20843655;28;20091;-62
2022/01/15 23:36:32;;;;;;;40.95;22.60;;;;;;;;;;20843242;28;20084;-62
2022/01/15 23:46:45;;;;;;;29.80;17.17;;;;;;;;;;20842134;28;20056;-61
2022/01/15 23:56:48;;;;;;;55.63;28.25;;;;;;;;;;20840060;28;20136;-63
